Weather History for College Park, MD

Change the Weather History Date:

Saturday, November 19, 2011

  Actual Average Record
Temperature  
Mean Temperature 42 °F -  
Max Temperature 55 °F 57 °F 73 °F (1957)
Min Temperature 30 °F 36 °F 23 °F (2014)
Degree Days  
Heating Degree Days 22    
Moisture  
Dew Point 25 °F    
Average Humidity 59    
Maximum Humidity 93    
Minimum Humidity 21    
Precipitation  
Precipitation 0.00 in - - ()
Sea Level Pressure  
Sea Level Pressure 30.37 in    
Wind  
Wind Speed 2 mph (SSW)    
Max Wind Speed 10 mph    
Max Gust Speed 16 mph    
Visibility 10 miles    
Events      
Averages and records for this station are not official NWS values.
T = Trace of Precipitation, MM = Missing Value Source: NWS Daily Summary

Daily Weather History Graph

Daily Weather History Graph

Search for Another Location

Airport:

Trip Planner

Search our weather history database for the weather conditions in past years. The results will help you decide how hot, cold, wet, or windy it might be!

Date:

Astronomy

Nov. 19, 2011 Rise Set
Actual Time 6:54 AM EST 4:51 PM EST
Civil Twilight 6:25 AM EST 5:19 PM EST
Nautical Twilight 5:53 AM EST 5:52 PM EST
Astronomical Twilight 5:21 AM EST 6:24 PM EST
Moon 12:16 AM EST (11/19) 1:04 PM EST (11/19)
Length of Visible Light 10h 53m
Length of Day
9h 56m
Last Quarter, 38% of the Moon is Illuminated
Nov 19
Last Quarter
Nov 25
New
Dec 2
First Quarter
Dec 10
Full
Dec 17
Last Quarter

Hourly Weather History & Observations

Time (EST) Temp. Windchill Dew Point Humidity Pressure Visibility Wind Dir Wind Speed Gust Speed Precip Events Conditions
12:10 AM 30.2 °F - 24.8 °F 80% 30.43 in 10.0 mi Calm Calm - N/A   Clear
12:30 AM 30.2 °F - 26.6 °F 86% 30.43 in 10.0 mi Calm Calm - N/A   Clear
12:50 AM 30.2 °F - 28.4 °F 93% 30.42 in 10.0 mi Calm Calm - N/A   Clear
1:10 AM 30.2 °F - 26.6 °F 86% 30.43 in 10.0 mi Calm Calm - N/A   Clear
1:30 AM 30.2 °F - 26.6 °F 86% 30.42 in 10.0 mi Calm Calm - N/A   Clear
1:50 AM 30.2 °F - 26.6 °F 86% 30.43 in 10.0 mi Calm Calm - N/A   Clear
2:10 AM 30.2 °F - 26.6 °F 86% 30.42 in 10.0 mi Calm Calm - N/A   Clear
2:25 AM 30.2 °F - 26.6 °F 86% 30.43 in 10.0 mi Calm Calm - N/A   Clear
2:45 AM 30.2 °F - 26.6 °F 86% 30.43 in 10.0 mi Calm Calm - N/A   Clear
3:25 AM 30.2 °F - 28.4 °F 93% 30.42 in 10.0 mi Calm Calm - N/A   Clear
3:45 AM 30.2 °F - 28.4 °F 93% 30.42 in 10.0 mi Calm Calm - N/A   Clear
4:05 AM 30.2 °F - 28.4 °F 93% 30.42 in 10.0 mi Calm Calm - N/A   Clear
4:25 AM 30.2 °F - 28.4 °F 93% 30.42 in 10.0 mi Calm Calm - N/A   Clear
4:40 AM 30.2 °F - 28.4 °F 93% 30.43 in 10.0 mi Calm Calm - N/A   Clear
5:00 AM 30.2 °F - 26.6 °F 86% 30.43 in 10.0 mi Calm Calm - N/A   Clear
5:40 AM 30.2 °F - 26.6 °F 86% 30.43 in 10.0 mi Calm Calm - N/A   Clear
6:00 AM 30.2 °F - 26.6 °F 86% 30.43 in 10.0 mi Calm Calm - N/A   Clear
6:20 AM 30.2 °F - 26.6 °F 86% 30.43 in 10.0 mi Calm Calm - N/A   Clear
6:40 AM 30.2 °F - 26.6 °F 86% 30.43 in 10.0 mi Calm Calm - N/A   Clear
6:55 AM 30.2 °F - 26.6 °F 86% 30.43 in 10.0 mi Calm Calm - N/A   Clear
7:15 AM 30.2 °F - 26.6 °F 86% 30.44 in 10.0 mi Calm Calm - N/A   Clear
7:55 AM 32.0 °F - 30.2 °F 93% 30.44 in 10.0 mi Calm Calm - N/A   Clear
8:15 AM 37.4 °F 33.8 °F 23.0 °F 56% 30.44 in 10.0 mi South 4.6 mph - N/A   Clear
8:35 AM 41.0 °F 38.0 °F 23.0 °F 49% 30.44 in 10.0 mi South 4.6 mph - N/A   Clear
8:55 AM 41.0 °F 38.0 °F 23.0 °F 49% 30.44 in 10.0 mi SSW 4.6 mph - N/A   Clear
9:15 AM 42.8 °F 41.1 °F 23.0 °F 46% 30.45 in 10.0 mi SSW 3.5 mph - N/A   Clear
9:30 AM 42.8 °F 38.6 °F 21.2 °F 42% 30.45 in 10.0 mi SSW 6.9 mph - N/A   Clear
9:50 AM 44.6 °F 39.7 °F 21.2 °F 39% 30.44 in 10.0 mi SW 9.2 mph - N/A   Clear
10:30 AM 46.4 °F 42.4 °F 21.2 °F 37% 30.44 in 10.0 mi SW 8.1 mph - N/A   Clear
10:50 AM 46.4 °F 42.9 °F 21.2 °F 37% 30.44 in 10.0 mi SSW 6.9 mph - N/A   Clear
11:10 AM 50.0 °F - 21.2 °F 32% 30.42 in 10.0 mi SSW 9.2 mph - N/A   Clear
11:30 AM 50.0 °F - 19.4 °F 30% 30.41 in 10.0 mi SSW 6.9 mph - N/A   Clear
11:45 AM 50.0 °F - 19.4 °F 30% 30.40 in 10.0 mi SSW 6.9 mph 16.1 mph N/A   Clear
12:05 PM 51.8 °F - 17.6 °F 26% 30.39 in 10.0 mi SSW 8.1 mph - N/A   Clear
12:45 PM 51.8 °F - 17.6 °F 26% 30.37 in 10.0 mi SSW 5.8 mph 16.1 mph N/A   Clear
1:05 PM 53.6 °F - 14.0 °F 21% 30.35 in 10.0 mi SSW 5.8 mph - N/A   Clear
1:25 PM 53.6 °F - 17.6 °F 24% 30.35 in 10.0 mi South 10.4 mph - N/A   Clear
2:00 PM 53.6 °F - 17.6 °F 24% 30.33 in 10.0 mi SW 5.8 mph - N/A   Clear
2:20 PM 55.4 °F - 17.6 °F 23% 30.33 in 10.0 mi SSW 5.8 mph - N/A   Clear
2:35 PM 55.4 °F - 17.6 °F 23% 30.32 in 10.0 mi SW 4.6 mph - N/A   Clear
3:00 PM 55.4 °F - 19.4 °F 25% 30.31 in 10.0 mi SW 4.6 mph - N/A   Clear
3:20 PM 55.4 °F - 17.6 °F 23% 30.30 in 10.0 mi SSW 6.9 mph - N/A   Clear
3:40 PM 55.4 °F - 19.4 °F 25% 30.30 in 10.0 mi SSW 3.5 mph - N/A   Clear
4:00 PM 55.4 °F - 21.2 °F 26% 30.30 in 10.0 mi South 8.1 mph - N/A   Clear
4:15 PM 53.6 °F - 23.0 °F 30% 30.30 in 10.0 mi South 6.9 mph - N/A   Clear
4:35 PM 53.6 °F - 23.0 °F 30% 30.30 in 10.0 mi SSW 4.6 mph - N/A   Clear
4:55 PM 51.8 °F - 23.0 °F 33% 30.30 in 10.0 mi Calm Calm - N/A   Clear
5:15 PM 51.8 °F - 24.8 °F 35% 30.30 in 10.0 mi SSW 3.5 mph - N/A   Clear
5:35 PM 50.0 °F - 26.6 °F 40% 30.31 in 10.0 mi Calm Calm - N/A   Clear
5:55 PM 44.6 °F - 28.4 °F 53% 30.31 in 10.0 mi Calm Calm - N/A   Clear
6:15 PM 42.8 °F - 30.2 °F 61% 30.30 in 10.0 mi Calm Calm - N/A   Clear
6:30 PM 42.8 °F - 30.2 °F 61% 30.30 in 10.0 mi Calm Calm - N/A   Clear
6:50 PM 42.8 °F - 30.2 °F 61% 30.29 in 10.0 mi Calm Calm - N/A   Clear
7:10 PM 41.0 °F - 32.0 °F 70% 30.30 in 10.0 mi Calm Calm - N/A   Clear
7:30 PM 42.8 °F - 32.0 °F 66% 30.30 in 10.0 mi Calm Calm - N/A   Clear
7:50 PM 41.0 °F - 32.0 °F 70% 30.29 in 10.0 mi Calm Calm - N/A   Clear
8:10 PM 41.0 °F - 32.0 °F 70% 30.29 in 10.0 mi Calm Calm - N/A   Clear
8:30 PM 42.8 °F - 32.0 °F 66% 30.29 in 10.0 mi Calm Calm - N/A   Clear
8:45 PM 42.8 °F - 32.0 °F 66% 30.29 in 10.0 mi Calm Calm - N/A   Clear
9:05 PM 41.0 °F - 33.8 °F 76% 30.29 in 10.0 mi Calm Calm - N/A   Clear
9:25 PM 42.8 °F - 33.8 °F 70% 30.28 in 10.0 mi Calm Calm - N/A   Clear
9:45 PM 44.6 °F - 33.8 °F 66% 30.28 in 10.0 mi Calm Calm - N/A   Clear
10:05 PM 46.4 °F - 33.8 °F 62% 30.28 in 10.0 mi Calm Calm - N/A   Clear
10:25 PM 50.0 °F - 33.8 °F 54% 30.28 in 10.0 mi SSW 3.5 mph - N/A   Clear
10:45 PM 50.0 °F - 35.6 °F 58% 30.27 in 10.0 mi Calm Calm - N/A   Clear
11:00 PM 50.0 °F - 35.6 °F 58% 30.27 in 10.0 mi SSW 3.5 mph - N/A   Clear
11:20 PM 50.0 °F - 35.6 °F 58% 30.27 in 10.0 mi Calm Calm - N/A   Clear
11:40 PM 50.0 °F - 37.4 °F 62% 30.26 in 10.0 mi SSW 3.5 mph - N/A   Clear